Time;durP1;ratioP1;P1;durP2;ratioP2;P2;SDS_P1;SDS_P2;PMS_P1;PMS_P2;Temp;Humidity;BMP_temperature;BMP_pressure;BME280_temperature;BME280_humidity;BME280_pressure;Samples;Min_cycle;Max_cycle;Signal;HPM_P1;HPM_P2
2022/10/17 04:22:50;;;;;;;4.70;2.97;;;;;;;10.48;100.00;100745.47;5163293;27;20429;-65
2022/10/17 04:25:16;;;;;;;3.58;2.63;;;;;;;10.45;100.00;100748.47;5111706;28;20035;-64
2022/10/17 04:27:45;;;;;;;3.95;2.53;;;;;;;10.52;100.00;100749.50;5129999;27;20035;-65
2022/10/17 04:30:12;;;;;;;8.95;2.17;;;;;;;10.48;100.00;100748.97;5129359;28;20044;-64
2022/10/17 04:32:38;;;;;;;6.00;2.45;;;;;;;10.45;100.00;100754.63;5130071;28;20046;-65
2022/10/17 04:35:18;;;;;;;4.57;2.47;;;;;;;10.47;100.00;100755.31;5129061;27;20047;-65
2022/10/17 04:37:48;;;;;;;4.07;2.40;;;;;;;10.52;100.00;100763.66;5128772;28;20057;-65
2022/10/17 04:40:16;;;;;;;;;;;;;;;10.51;100.00;100767.31;5128707;27;20122;-65
2022/10/17 04:42:42;;;;;;;6.05;2.22;;;;;;;10.45;100.00;100767.97;5130022;27;19990;-65
2022/10/17 04:45:09;;;;;;;3.38;2.20;;;;;;;10.48;100.00;100761.47;5128512;28;20106;-65
2022/10/17 04:47:35;;;;;;;4.32;2.42;;;;;;;10.51;100.00;100764.66;5128584;28;20035;-65
2022/10/17 04:50:02;;;;;;;4.32;2.20;;;;;;;10.54;100.00;100768.81;5128329;28;20421;-65
2022/10/17 04:52:31;;;;;;;4.72;2.22;;;;;;;10.53;100.00;100773.31;5128142;28;20066;-65
2022/10/17 04:54:57;;;;;;;5.03;2.08;;;;;;;10.52;100.00;100770.81;5128438;28;20063;-64
2022/10/17 04:57:23;;;;;;;2.70;1.90;;;;;;;10.53;100.00;100767.16;5128117;28;20088;-64
2022/10/17 04:59:59;;;;;;;3.70;2.20;;;;;;;10.53;100.00;100772.47;5128171;28;20044;-65
2022/10/17 05:02:44;;;;;;;3.17;1.85;;;;;;;10.43;100.00;100783.28;5128206;28;20043;-64
2022/10/17 05:05:09;;;;;;;4.47;2.35;;;;;;;10.35;100.00;100787.69;5129274;27;20053;-65
2022/10/17 05:07:39;;;;;;;3.03;2.00;;;;;;;10.39;100.00;100781.06;5127992;28;20506;-65
2022/10/17 05:10:10;;;;;;;3.80;2.13;;;;;;;10.41;100.00;100787.06;5127870;27;20131;-65
2022/10/17 05:12:36;;;;;;;7.63;2.38;;;;;;;10.44;100.00;100787.59;5127944;28;20122;-64
2022/10/17 05:15:03;;;;;;;10.10;2.00;;;;;;;10.48;100.00;100770.28;5127821;27;20039;-65
2022/10/17 05:17:29;;;;;;;4.32;2.33;;;;;;;10.51;100.00;100769.97;5127832;27;20039;-64
2022/10/17 05:19:55;;;;;;;5.00;1.92;;;;;;;10.44;100.00;100781.44;5127654;27;20553;-64
2022/10/17 05:22:21;;;;;;;2.15;1.58;;;;;;;10.43;100.00;100785.94;5127474;28;20063;-65
2022/10/17 05:24:47;;;;;;;5.20;1.85;;;;;;;10.37;100.00;100786.56;5127878;28;20039;-64
2022/10/17 05:27:12;;;;;;;3.65;1.83;;;;;;;10.34;100.00;100784.19;5127617;28;20047;-64
2022/10/17 05:29:38;;;;;;;3.70;1.70;;;;;;;10.36;100.00;100782.22;5127751;28;20076;-65
2022/10/17 05:32:19;;;;;;;4.10;2.17;;;;;;;10.36;100.00;100778.72;5124520;27;20540;-65
2022/10/17 05:34:44;;;;;;;5.05;2.13;;;;;;;10.39;100.00;100787.22;5113801;28;20126;-65
2022/10/17 05:37:10;;;;;;;3.08;1.80;;;;;;;10.43;100.00;100790.41;5113799;28;20119;-65
2022/10/17 05:39:36;;;;;;;4.10;1.92;;;;;;;10.44;100.00;100787.59;5114006;28;20039;-65
2022/10/17 05:42:03;;;;;;;1.92;1.73;;;;;;;10.40;100.00;100788.91;5113120;28;20100;-64
2022/10/17 05:44:28;;;;;;;4.22;2.25;;;;;;;10.41;100.00;100784.41;5113753;28;20122;-65
2022/10/17 05:46:57;;;;;;;3.33;2.10;;;;;;;10.40;100.00;100793.38;5113017;28;20036;-64
2022/10/17 05:49:23;;;;;;;4.53;2.10;;;;;;;10.37;100.00;100788.38;5113441;28;20076;-65
2022/10/17 05:51:48;;;;;;;3.90;2.00;;;;;;;10.34;100.00;100792.19;5113011;28;20035;-65
2022/10/17 05:54:14;;;;;;;3.90;2.38;;;;;;;10.29;100.00;100789.16;5114745;28;20038;-64
2022/10/17 05:56:39;;;;;;;4.85;2.40;;;;;;;10.28;100.00;100800.81;5114528;28;20058;-65
2022/10/17 05:59:05;;;;;;;4.13;1.85;;;;;;;10.24;100.00;100804.81;5113316;28;20035;-64
2022/10/17 06:01:41;;;;;;;1.75;1.50;;;;;;;10.28;100.00;100803.47;5112851;28;20031;-64
2022/10/17 06:04:07;;;;;;;2.35;1.80;;;;;;;10.29;100.00;100807.81;5113123;28;20047;-64
2022/10/17 06:06:35;;;;;;;4.68;2.25;;;;;;;10.24;100.00;100799.47;5112973;28;20084;-65
2022/10/17 06:09:00;;;;;;;5.68;1.85;;;;;;;10.28;100.00;100808.81;5113088;28;20074;-64
2022/10/17 06:11:31;;;;;;;3.92;2.50;;;;;;;10.35;100.00;100806.34;5112805;28;20081;-67
2022/10/17 06:13:58;;;;;;;2.87;1.93;;;;;;;10.39;100.00;100803.22;5113108;28;20032;-67
2022/10/17 06:16:24;;;;;;;1.85;1.52;;;;;;;10.42;100.00;100810.03;5113229;28;20429;-67
2022/10/17 06:18:50;;;;;;;3.63;2.40;;;;;;;10.45;100.00;100815.91;5114865;28;20058;-68
2022/10/17 06:21:22;;;;;;;5.70;2.30;;;;;;;10.43;100.00;100819.69;5113130;28;20046;-68
2022/10/17 06:23:51;;;;;;;3.03;1.90;;;;;;;10.41;100.00;100821.69;5113054;28;20027;-67
2022/10/17 06:26:30;;;;;;;4.10;2.05;;;;;;;10.50;100.00;100824.25;5112706;28;20023;-67
2022/10/17 06:28:55;;;;;;;2.00;1.65;;;;;;;10.49;100.00;100821.72;5113220;28;20036;-68
2022/10/17 06:31:21;;;;;;;5.20;2.13;;;;;;;10.43;100.00;100828.53;5112488;28;20039;-67
2022/10/17 06:33:48;;;;;;;3.28;2.08;;;;;;;10.49;100.00;100833.22;5112664;28;20668;-68
2022/10/17 06:36:13;;;;;;;3.92;2.47;;;;;;;10.52;100.00;100840.91;5112808;28;20065;-67
2022/10/17 06:38:40;;;;;;;4.38;2.40;;;;;;;10.57;100.00;100835.94;5112464;28;20448;-54
2022/10/17 06:41:14;;;;;;;5.00;2.47;;;;;;;10.63;100.00;100845.13;5112097;28;20016;-50
2022/10/17 06:43:42;;;;;;;;;;;;;;;10.68;100.00;100845.47;5112654;28;20054;-53
2022/10/17 06:46:43;;;;;;;2.85;2.33;;;;;;;10.74;100.00;100860.81;5070256;28;19939;-54
2022/10/17 06:49:09;;;;;;;7.68;2.67;;;;;;;10.82;100.00;100854.69;5099087;28;20138;-55
2022/10/17 06:51:46;;;;;;;4.25;2.88;;;;;;;10.89;100.00;100861.06;5111753;28;20036;-51
2022/10/17 06:54:14;;;;;;;9.43;2.83;;;;;;;10.98;100.00;100859.25;5112094;28;20053;-52
2022/10/17 06:56:48;;;;;;;4.47;2.58;;;;;;;11.04;100.00;100850.63;5113253;28;20399;-58
2022/10/17 06:59:27;;;;;;;5.03;2.75;;;;;;;11.14;100.00;100856.63;5112025;28;20063;-53
2022/10/17 07:02:00;;;;;;;7.28;2.72;;;;;;;11.22;100.00;100854.00;5111587;28;20032;-55
2022/10/17 07:04:26;;;;;;;5.40;2.40;;;;;;;11.33;100.00;100864.34;5111848;28;20032;-51
2022/10/17 07:06:52;;;;;;;7.90;2.40;;;;;;;11.41;100.00;100867.06;5111738;28;20154;-50
2022/10/17 07:09:21;;;;;;;5.15;2.63;;;;;;;11.49;100.00;100874.25;5111698;28;20096;-50
2022/10/17 07:11:47;;;;;;;4.75;3.03;;;;;;;11.55;100.00;100865.59;5111285;28;20496;-53
2022/10/17 07:14:16;;;;;;;3.58;2.55;;;;;;;11.65;100.00;100876.09;5111771;28;20122;-68
2022/10/17 07:16:41;;;;;;;3.72;2.88;;;;;;;11.70;100.00;100871.09;5111478;28;20145;-67
2022/10/17 07:19:14;;;;;;;4.32;2.60;;;;;;;11.80;100.00;100865.59;5111688;28;20419;-67
2022/10/17 07:21:39;;;;;;;3.53;2.75;;;;;;;11.87;100.00;100877.34;5111100;28;20084;-67
2022/10/17 07:24:07;;;;;;;6.53;3.03;;;;;;;11.94;100.00;100886.34;5112914;28;20066;-67
2022/10/17 07:26:33;;;;;;;3.92;2.85;;;;;;;11.97;100.00;100879.81;5111406;28;20067;-67
2022/10/17 07:29:00;;;;;;;5.97;2.45;;;;;;;12.07;100.00;100884.00;5111426;28;20495;-68
2022/10/17 07:31:32;;;;;;;4.25;2.50;;;;;;;12.13;100.00;100891.34;5111236;28;20404;-68
2022/10/17 07:33:59;;;;;;;4.40;2.53;;;;;;;12.21;100.00;100901.19;5111330;28;20099;-68
2022/10/17 07:36:25;;;;;;;3.37;2.67;;;;;;;12.30;100.00;100904.69;5111151;28;20116;-68
2022/10/17 07:38:50;;;;;;;4.25;2.67;;;;;;;12.39;100.00;100899.16;5111203;28;20134;-68
2022/10/17 07:41:18;;;;;;;3.95;2.53;;;;;;;12.47;100.00;100899.16;5111021;28;20046;-68
2022/10/17 07:43:45;;;;;;;4.65;2.65;;;;;;;12.52;100.00;100903.13;5111153;28;20035;-68
2022/10/17 07:46:11;;;;;;;3.80;2.78;;;;;;;12.64;100.00;100905.28;5111023;28;20028;-68
2022/10/17 07:48:39;;;;;;;3.97;2.53;;;;;;;12.74;100.00;100910.44;5111079;28;20036;-68
2022/10/17 07:51:07;;;;;;;4.25;2.75;;;;;;;12.83;100.00;100911.25;5110699;28;20059;-67
2022/10/17 07:53:36;;;;;;;3.38;2.35;;;;;;;12.92;100.00;100910.22;5112461;28;20032;-69
2022/10/17 07:56:08;;;;;;;5.13;3.33;;;;;;;13.04;100.00;100916.88;5112189;28;20036;-68
2022/10/17 07:58:35;;;;;;;6.72;2.58;;;;;;;13.10;100.00;100905.47;5112270;28;20031;-68
2022/10/17 08:01:06;;;;;;;6.05;2.67;;;;;;;13.17;100.00;100911.81;5111975;28;20055;-68
2022/10/17 08:03:32;;;;;;;4.82;2.72;;;;;;;13.25;100.00;100919.81;5112179;28;20048;-68
2022/10/17 08:05:59;;;;;;;5.93;2.80;;;;;;;13.35;100.00;100918.75;5112131;28;20039;-68
2022/10/17 08:08:25;;;;;;;3.03;2.20;;;;;;;13.41;100.00;100918.91;5112180;28;20487;-68
2022/10/17 08:10:51;;;;;;;3.60;2.30;;;;;;;13.50;100.00;100931.25;5111759;28;20047;-68
2022/10/17 08:13:16;;;;;;;3.40;2.40;;;;;;;13.61;100.00;100921.13;5112105;28;20171;-68
2022/10/17 08:15:42;;;;;;;5.47;2.70;;;;;;;13.71;100.00;100930.63;5111905;28;20035;-68
2022/10/17 08:18:07;;;;;;;3.95;2.33;;;;;;;13.83;100.00;100925.69;5112025;28;20035;-68
2022/10/17 08:20:32;;;;;;;4.35;2.40;;;;;;;13.92;100.00;100929.97;5111476;28;20062;-68
2022/10/17 08:22:58;;;;;;;4.57;2.40;;;;;;;14.02;100.00;100930.56;5112048;28;20096;-68
2022/10/17 08:25:23;;;;;;;7.22;2.88;;;;;;;14.14;100.00;100930.97;5111820;28;20039;-68
2022/10/17 08:27:49;;;;;;;6.40;2.63;;;;;;;14.22;100.00;100925.56;5111827;28;20131;-68
2022/10/17 08:30:15;;;;;;;3.33;2.00;;;;;;;14.33;100.00;100929.63;5111638;28;20127;-68
2022/10/17 08:32:41;;;;;;;4.50;2.10;;;;;;;14.39;100.00;100926.22;5111866;28;20107;-68
2022/10/17 08:35:06;;;;;;;2.33;1.98;;;;;;;14.49;100.00;100923.34;5111803;28;20107;-68
2022/10/17 08:37:32;;;;;;;6.50;2.30;;;;;;;14.67;100.00;100931.88;5111793;28;20412;-68
2022/10/17 08:39:57;;;;;;;3.55;2.15;;;;;;;14.80;100.00;100933.88;5111649;28;20488;-68
2022/10/17 08:42:39;;;;;;;4.18;2.40;;;;;;;14.91;100.00;100928.91;5111655;28;20548;-68
2022/10/17 08:45:22;;;;;;;3.70;2.22;;;;;;;15.02;100.00;100938.34;5111831;28;20073;-68
2022/10/17 08:47:52;;;;;;;2.80;1.73;;;;;;;15.11;100.00;100944.44;5111857;28;20498;-68
2022/10/17 08:50:20;;;;;;;4.15;1.77;;;;;;;15.32;100.00;100960.63;5111253;28;20043;-68
2022/10/17 08:53:22;;;;;;;2.22;1.80;;;;;;;15.47;100.00;100956.06;5111663;28;20031;-68
2022/10/17 08:55:50;;;;;;;3.28;2.20;;;;;;;15.60;100.00;100949.19;5110423;28;20127;-68
2022/10/17 08:58:21;;;;;;;2.95;1.80;;;;;;;15.69;100.00;100948.09;5111767;28;20031;-68
2022/10/17 09:01:09;;;;;;;3.90;2.22;;;;;;;15.86;100.00;100936.09;5111261;28;20039;-68
2022/10/17 09:03:53;;;;;;;;;;;;;;;16.09;100.00;100933.19;5112130;28;20050;-68
2022/10/17 09:06:28;;;;;;;2.95;2.20;;;;;;;16.34;100.00;100935.50;5111603;28;19965;-68
2022/10/17 09:09:18;;;;;;;2.15;1.70;;;;;;;16.44;100.00;100934.13;5114459;28;20373;-68
2022/10/17 09:12:02;;;;;;;2.58;1.80;;;;;;;16.66;100.00;100936.78;5115115;28;20044;-68
2022/10/17 09:15:05;;;;;;;4.15;1.77;;;;;;;16.81;100.00;100932.13;5115471;28;20062;-68
2022/10/17 09:17:59;;;;;;;3.28;2.20;;;;;;;16.99;100.00;100935.16;5115234;28;20020;-68
2022/10/17 09:20:53;;;;;;;1.73;1.50;;;;;;;17.21;100.00;100935.88;5115076;28;20108;-68
2022/10/17 09:23:23;;;;;;;2.13;1.67;;;;;;;17.37;100.00;100948.19;5115322;28;20134;-68
2022/10/17 09:25:52;;;;;;;2.70;1.83;;;;;;;17.54;100.00;100952.19;5115155;28;20046;-68
2022/10/17 09:28:28;;;;;;;2.20;1.75;;;;;;;17.75;100.00;100953.13;5115129;28;20036;-69
2022/10/17 09:30:59;;;;;;;7.78;2.03;;;;;;;18.13;100.00;100948.00;5114744;28;20039;-68
2022/10/17 09:33:40;;;;;;;2.22;1.80;;;;;;;18.19;100.00;100944.47;5115113;28;20066;-69
2022/10/17 09:36:21;;;;;;;2.20;1.48;;;;;;;18.43;99.20;100943.03;5114905;28;20041;-68
2022/10/17 09:38:51;;;;;;;2.33;1.55;;;;;;;18.60;98.83;100944.28;5115001;28;20031;-68
2022/10/17 09:41:28;;;;;;;3.00;1.63;;;;;;;18.90;95.45;100944.66;5114784;27;20139;-68
2022/10/17 09:43:55;;;;;;;3.33;1.85;;;;;;;18.98;95.60;100947.16;5115015;28;20103;-68
2022/10/17 09:46:35;;;;;;;4.80;1.67;;;;;;;19.37;92.04;100939.13;5114847;28;20031;-68
2022/10/17 09:49:08;;;;;;;1.77;1.40;;;;;;;19.55;91.91;100949.22;5114789;28;20488;-69
2022/10/17 09:51:36;;;;;;;2.50;1.30;;;;;;;20.01;87.88;100946.28;5114357;28;20133;-69
2022/10/17 09:54:07;;;;;;;2.47;1.50;;;;;;;20.38;86.22;100943.72;5114665;28;20043;-69
2022/10/17 09:56:56;;;;;;;1.40;1.30;;;;;;;20.93;81.98;100952.81;5114696;28;20043;-68
2022/10/17 09:59:34;;;;;;;2.17;1.20;;;;;;;21.36;79.74;100950.06;5114669;28;20067;-68
2022/10/17 10:02:14;;;;;;;3.88;1.52;;;;;;;21.82;78.11;100953.22;5114335;28;20044;-68
2022/10/17 10:04:55;;;;;;;2.38;1.40;;;;;;;22.45;73.35;100948.09;5114635;28;20035;-68
2022/10/17 10:07:21;;;;;;;1.65;1.40;;;;;;;22.90;72.08;100942.09;5114428;28;20407;-68
2022/10/17 10:09:48;;;;;;;3.22;1.52;;;;;;;23.43;70.63;100953.81;5114404;28;20043;-68
2022/10/17 10:12:18;;;;;;;1.98;1.00;;;;;;;24.22;63.82;100945.78;5114070;28;20089;-68
2022/10/17 10:14:45;;;;;;;1.80;1.27;;;;;;;24.74;62.44;100943.63;5114242;28;20043;-68
2022/10/17 10:17:33;;;;;;;2.67;1.53;;;;;;;25.05;59.95;100944.91;5114226;28;20074;-68
2022/10/17 10:19:59;;;;;;;1.50;1.20;;;;;;;25.47;58.60;100957.97;5113646;28;20273;-69
2022/10/17 10:22:25;;;;;;;1.70;1.10;;;;;;;25.48;60.21;100962.34;5114067;28;20032;-68
2022/10/17 10:25:09;;;;;;;3.15;1.52;;;;;;;26.21;53.92;100966.41;5113919;28;20096;-68
2022/10/17 10:27:35;;;;;;;1.92;1.30;;;;;;;26.28;56.29;100957.16;5112874;28;20540;-69
2022/10/17 10:30:02;;;;;;;1.52;1.15;;;;;;;26.54;57.49;100955.50;5113878;28;20108;-69
2022/10/17 10:32:30;;;;;;;2.00;1.50;;;;;;;27.10;50.80;100961.34;5114138;28;20059;-68
2022/10/17 10:35:07;;;;;;;1.98;1.42;;;;;;;26.68;52.83;100959.44;5113842;28;20031;-68
2022/10/17 10:37:38;;;;;;;3.72;1.58;;;;;;;27.39;51.55;100957.09;5113845;28;20473;-68
2022/10/17 10:40:06;;;;;;;1.20;1.10;;;;;;;27.54;51.18;100959.88;5113721;28;20112;-68
2022/10/17 10:42:34;;;;;;;2.22;1.40;;;;;;;27.41;49.70;100948.63;5113514;28;20023;-68
2022/10/17 10:45:15;;;;;;;1.95;1.40;;;;;;;27.46;49.31;100968.63;5113648;28;20045;-69
2022/10/17 10:47:57;;;;;;;2.38;1.20;;;;;;;27.79;48.60;100961.09;5113663;28;20036;-69
2022/10/17 10:50:32;;;;;;;1.55;1.35;;;;;;;28.02;48.22;100965.22;5113450;28;20042;-69
2022/10/17 10:53:06;;;;;;;3.83;1.40;;;;;;;27.56;47.57;100959.59;5113744;27;20385;-69
2022/10/17 10:55:39;;;;;;;2.13;1.40;;;;;;;27.07;48.13;100951.78;5113450;28;20345;-69
2022/10/17 10:58:35;;;;;;;2.97;1.67;;;;;;;27.52;50.05;100950.31;5113519;28;20035;-68
2022/10/17 11:01:04;;;;;;;;;;;;;;;27.52;50.42;100948.41;5110289;28;20412;-69
2022/10/17 11:03:43;;;;;;;1.50;1.30;;;;;;;28.23;46.27;100961.38;5113387;28;19916;-69
2022/10/17 11:06:17;;;;;;;1.65;1.42;;;;;;;28.36;45.76;100954.56;5113303;28;20039;-69
2022/10/17 11:09:09;;;;;;;2.97;1.30;;;;;;;28.46;46.85;100951.84;5113374;28;20040;-68
2022/10/17 11:11:40;;;;;;;3.08;1.65;;;;;;;28.99;45.29;100952.31;5104403;28;20042;-68
2022/10/17 11:14:20;;;;;;;2.78;1.50;;;;;;;29.59;44.66;100957.84;5113111;28;20145;-68
2022/10/17 11:16:48;;;;;;;2.33;2.10;;;;;;;28.90;44.15;100960.25;5112876;28;20074;-68
2022/10/17 11:19:27;;;;;;;2.10;1.50;;;;;;;28.99;45.05;100967.94;5112959;28;20042;-68
2022/10/17 11:22:11;;;;;;;2.13;1.48;;;;;;;29.59;43.33;100963.34;5112512;28;20032;-68
2022/10/17 11:24:45;;;;;;;2.03;1.38;;;;;;;29.55;45.07;100965.84;5112959;28;20055;-68
2022/10/17 11:27:11;;;;;;;4.35;1.88;;;;;;;29.79;42.45;100973.38;5112781;28;20032;-68
2022/10/17 11:29:39;;;;;;;4.80;1.52;;;;;;;29.72;42.05;100968.19;5112755;28;20039;-68
2022/10/17 11:32:19;;;;;;;3.53;1.50;;;;;;;30.03;42.15;100966.06;5111991;28;20031;-68
2022/10/17 11:34:53;;;;;;;2.90;1.70;;;;;;;29.97;41.76;100968.03;5112733;28;20031;-55
2022/10/17 11:37:29;;;;;;;2.63;1.52;;;;;;;30.09;40.36;100969.63;5112642;28;20039;-54
2022/10/17 11:40:29;;;;;;;3.15;1.80;;;;;;;30.27;40.98;100957.97;5112606;28;20408;-54
2022/10/17 11:43:09;;;;;;;2.00;1.52;;;;;;;30.92;39.73;100971.41;5112245;28;20410;-51
2022/10/17 11:45:42;;;;;;;1.60;1.40;;;;;;;30.41;41.97;100972.69;5112457;28;20035;-54
2022/10/17 11:48:21;;;;;;;3.58;1.50;;;;;;;30.96;41.17;100967.75;5112564;28;20450;-51
2022/10/17 11:50:54;;;;;;;2.78;1.95;;;;;;;30.79;40.70;100975.66;5110811;28;20484;-51
2022/10/17 11:53:27;;;;;;;2.42;1.70;;;;;;;30.93;39.65;100965.59;5112369;28;20035;-51
2022/10/17 11:55:57;;;;;;;4.53;1.75;;;;;;;30.69;39.88;100967.50;5112231;28;20054;-54
2022/10/17 11:58:40;;;;;;;2.22;1.80;;;;;;;30.53;39.86;100970.38;5112544;28;20404;-54
2022/10/17 12:01:16;;;;;;;4.45;1.70;;;;;;;30.31;40.48;100967.25;5111984;28;20476;-51
2022/10/17 12:03:44;;;;;;;2.63;1.65;;;;;;;30.21;41.52;100967.34;5112325;28;20038;-57
2022/10/17 12:06:25;;;;;;;2.13;1.63;;;;;;;29.87;41.62;100970.88;5112098;28;20055;-52
2022/10/17 12:08:50;;;;;;;3.75;1.92;;;;;;;30.04;41.17;100970.47;5111009;28;20035;-51
2022/10/17 12:11:55;;;;;;;2.33;1.58;;;;;;;30.50;40.68;100973.69;5111916;28;20030;-55
2022/10/17 12:14:34;;;;;;;5.10;2.07;;;;;;;30.05;42.05;100976.78;5112135;28;20135;-55
2022/10/17 12:17:01;;;;;;;1.67;1.33;;;;;;;29.87;41.30;100970.06;5111985;28;20050;-52
2022/10/17 12:19:32;;;;;;;2.17;1.60;;;;;;;30.12;40.46;100963.56;5112269;28;20043;-52
2022/10/17 12:22:19;;;;;;;3.70;1.90;;;;;;;29.68;40.36;100961.66;5111514;28;20118;-51
2022/10/17 12:25:02;;;;;;;2.75;1.60;;;;;;;29.56;41.11;100956.50;5111973;28;20395;-53
2022/10/17 12:27:46;;;;;;;4.85;1.83;;;;;;;29.94;40.33;100956.81;5111914;28;20046;-55
2022/10/17 12:30:12;;;;;;;2.45;1.75;;;;;;;29.67;40.69;100960.00;5111657;28;20045;-52
2022/10/17 12:33:13;;;;;;;2.38;1.63;;;;;;;29.69;40.52;100946.81;5112065;28;20023;-54
2022/10/17 12:35:39;;;;;;;4.43;1.63;;;;;;;29.86;40.92;100958.22;5111654;28;20042;-52
2022/10/17 12:38:14;;;;;;;2.67;1.83;;;;;;;30.08;41.02;100944.06;5110720;28;20040;-52
2022/10/17 12:40:42;;;;;;;3.78;1.83;;;;;;;30.13;40.27;100937.75;5111787;28;20093;-54
2022/10/17 12:43:14;;;;;;;2.53;1.40;;;;;;;30.48;39.89;100936.63;5113550;28;20559;-51
2022/10/17 12:45:59;;;;;;;3.28;1.45;;;;;;;30.54;40.90;100938.19;5115727;28;20507;-55
2022/10/17 12:48:33;;;;;;;2.30;1.60;;;;;;;31.06;38.10;100940.13;5116047;28;20035;-51
2022/10/17 12:51:18;;;;;;;2.33;1.73;;;;;;;30.40;40.52;100949.06;5115410;28;20036;-52
2022/10/17 12:54:01;;;;;;;3.45;2.28;;;;;;;30.69;39.02;100948.25;5115713;27;20046;-53
2022/10/17 12:56:48;;;;;;;4.40;2.17;;;;;;;30.32;38.08;100944.19;5116537;28;20043;-52
2022/10/17 12:59:27;;;;;;;3.67;2.00;;;;;;;29.99;39.41;100952.13;5116282;28;20035;-56
2022/10/17 13:01:56;;;;;;;6.25;1.83;;;;;;;29.57;39.83;100951.81;5115368;28;20035;-55
2022/10/17 13:04:22;;;;;;;2.65;1.70;;;;;;;28.92;40.95;100947.13;5115615;28;20024;-55
2022/10/17 13:06:52;;;;;;;3.72;2.28;;;;;;;28.80;40.58;100946.56;5115539;28;20100;-54
2022/10/17 13:09:31;;;;;;;2.88;2.03;;;;;;;28.65;41.63;100949.34;5115618;28;20107;-53
2022/10/17 13:12:00;;;;;;;2.60;1.95;;;;;;;27.99;42.77;100949.34;5115128;28;20035;-65
2022/10/17 13:14:26;;;;;;;4.38;1.85;;;;;;;28.09;42.21;100952.06;5115358;28;20046;-65
2022/10/17 13:16:54;;;;;;;2.97;2.03;;;;;;;27.76;43.09;100946.00;5115389;28;20604;-64
2022/10/17 13:19:23;;;;;;;4.18;2.45;;;;;;;27.50;43.03;100944.28;5115327;28;20337;-64
2022/10/17 13:21:49;;;;;;;4.43;1.90;;;;;;;27.30;44.39;100940.38;5114973;28;20487;-64
2022/10/17 13:24:41;;;;;;;2.75;2.55;;;;;;;27.14;45.67;100941.41;5115353;28;20034;-64
2022/10/17 13:27:22;;;;;;;3.65;2.10;;;;;;;27.01;43.98;100939.94;5113911;28;20051;-64
2022/10/17 13:29:47;;;;;;;6.50;2.03;;;;;;;26.92;44.78;100941.53;5115009;27;20091;-64
2022/10/17 13:32:13;;;;;;;3.78;1.88;;;;;;;26.86;46.96;100939.84;5114812;28;20460;-64
2022/10/17 13:34:38;;;;;;;3.85;2.13;;;;;;;26.55;46.58;100941.59;5114945;28;20043;-64
2022/10/17 13:37:06;;;;;;;4.10;1.85;;;;;;;26.62;46.66;100944.09;5114978;28;20491;-65
2022/10/17 13:39:43;;;;;;;2.40;1.92;;;;;;;26.35;48.16;100953.16;5115039;28;20396;-65
2022/10/17 13:42:24;;;;;;;2.70;1.55;;;;;;;26.28;46.69;100952.56;5114477;28;20036;-63
2022/10/17 13:44:50;;;;;;;2.08;1.80;;;;;;;26.17;47.25;100957.09;5114938;28;20043;-65
2022/10/17 13:47:21;;;;;;;3.63;1.90;;;;;;;26.26;49.52;100949.25;5114768;28;20088;-64
2022/10/17 13:49:47;;;;;;;3.15;2.10;;;;;;;25.90;49.53;100950.84;5114737;28;20043;-64
2022/10/17 13:52:17;;;;;;;4.20;1.75;;;;;;;25.81;50.66;100957.81;5114431;27;20167;-65
2022/10/17 13:54:46;;;;;;;5.22;1.88;;;;;;;25.68;50.90;100965.28;5114140;28;20058;-64
2022/10/17 13:57:25;;;;;;;5.90;3.08;;;;;;;25.64;51.24;100971.53;5114413;28;20510;-65
2022/10/17 13:59:55;;;;;;;6.20;2.60;;;;;;;25.51;51.52;100972.75;5114507;28;20078;-65
2022/10/17 14:02:29;;;;;;;4.47;2.10;;;;;;;25.44;51.15;100969.41;5114331;28;20452;-64
2022/10/17 14:05:07;;;;;;;3.53;2.08;;;;;;;25.38;52.46;100973.16;5114422;28;20454;-64
2022/10/17 14:07:49;;;;;;;3.22;2.10;;;;;;;25.35;51.21;100966.28;5114300;28;20034;-63
2022/10/17 14:10:26;;;;;;;3.88;2.15;;;;;;;25.29;51.29;100977.38;5114104;28;20054;-64
2022/10/17 14:12:53;;;;;;;3.03;1.92;;;;;;;25.32;52.18;100965.97;5114225;28;20110;-64
2022/10/17 14:15:23;;;;;;;4.97;2.30;;;;;;;25.31;53.40;100956.97;5114104;28;20477;-64
2022/10/17 14:17:55;;;;;;;3.10;1.98;;;;;;;25.33;53.90;100957.53;5114541;27;20036;-65
2022/10/17 14:20:22;;;;;;;5.18;2.00;;;;;;;25.39;54.43;100961.97;5114238;28;20062;-64
2022/10/17 14:22:48;;;;;;;3.35;2.13;;;;;;;25.36;54.86;100956.19;5114176;28;20110;-64
2022/10/17 14:25:30;;;;;;;3.03;2.15;;;;;;;25.37;55.83;100966.03;5113985;28;20042;-64
2022/10/17 14:28:10;;;;;;;4.43;2.55;;;;;;;25.37;55.38;100964.13;5114022;28;20031;-64
2022/10/17 14:30:39;;;;;;;4.78;2.10;;;;;;;25.31;52.25;100958.88;5113935;28;20396;-53
2022/10/17 14:33:16;;;;;;;3.78;2.53;;;;;;;25.16;53.20;100960.31;5114138;28;20032;-48
2022/10/17 14:35:53;;;;;;;3.42;2.30;;;;;;;25.16;52.46;100963.03;5114024;28;20039;-52
2022/10/17 14:38:19;;;;;;;3.80;1.90;;;;;;;25.11;52.78;100960.25;5113979;28;20031;-53
2022/10/17 14:41:12;;;;;;;5.28;2.30;;;;;;;25.05;53.74;100958.53;5113626;28;20027;-55
2022/10/17 14:43:38;;;;;;;3.38;2.17;;;;;;;24.95;52.06;100965.72;5113806;28;20047;-53
2022/10/17 14:46:04;;;;;;;4.68;2.00;;;;;;;24.84;52.91;100965.59;5113843;28;20038;-64
2022/10/17 14:48:32;;;;;;;3.97;1.98;;;;;;;24.80;53.55;100961.69;5113739;28;20047;-65
2022/10/17 14:51:08;;;;;;;4.10;2.28;;;;;;;24.80;53.83;100969.06;5113311;28;20039;-63
2022/10/17 14:53:34;;;;;;;3.17;2.00;;;;;;;24.76;54.07;100973.34;5113585;28;20085;-64
2022/10/17 14:56:04;;;;;;;6.93;2.50;;;;;;;24.71;55.33;100965.09;5113448;28;20548;-63
2022/10/17 14:58:32;;;;;;;3.08;1.73;;;;;;;24.67;54.84;100962.06;5113472;28;20481;-65
2022/10/17 15:00:58;;;;;;;4.15;2.17;;;;;;;24.60;55.24;100970.38;5113023;28;20044;-64
2022/10/17 15:03:24;;;;;;;4.00;2.13;;;;;;;24.56;55.57;100969.22;5113295;27;20039;-65
2022/10/17 15:05:53;;;;;;;6.38;2.30;;;;;;;24.50;55.69;100970.22;5112464;28;20036;-64
2022/10/17 15:08:22;;;;;;;3.20;1.90;;;;;;;24.47;57.25;100981.63;5113246;28;20484;-63
2022/10/17 15:10:49;;;;;;;4.43;2.17;;;;;;;24.47;57.64;100978.91;5112869;28;20028;-64
2022/10/17 15:13:15;;;;;;;3.90;2.10;;;;;;;24.36;57.67;100985.22;5113099;28;20031;-63
2022/10/17 15:15:42;;;;;;;3.00;2.00;;;;;;;24.33;57.44;100986.56;5113019;28;20408;-65
2022/10/17 15:18:10;;;;;;;2.17;1.77;;;;;;;24.28;57.94;100988.34;5113165;28;20043;-64
2022/10/17 15:20:36;;;;;;;3.22;1.85;;;;;;;24.22;58.45;100992.88;5112484;28;20181;-66
2022/10/17 15:23:02;;;;;;;3.10;2.17;;;;;;;24.25;59.19;101000.53;5113050;28;20039;-65
2022/10/17 15:25:29;;;;;;;6.20;3.00;;;;;;;24.18;60.78;100999.84;5112813;28;20505;-65
2022/10/17 15:27:55;;;;;;;4.45;2.53;;;;;;;24.12;60.50;101003.56;5112846;28;20067;-64
2022/10/17 15:30:31;;;;;;;4.43;2.30;;;;;;;24.07;60.89;100996.16;5112532;28;20480;-64
2022/10/17 15:32:57;;;;;;;6.30;2.45;;;;;;;24.01;60.60;100999.84;5112869;28;20052;-64
2022/10/17 15:35:22;;;;;;;5.53;2.70;;;;;;;23.98;61.16;101008.47;5112597;28;20058;-64
2022/10/17 15:37:48;;;;;;;9.05;3.40;;;;;;;23.92;61.55;101001.28;5111364;28;20066;-64
2022/10/17 15:40:27;;;;;;;4.65;2.42;;;;;;;23.89;61.61;100996.34;5112340;28;20830;-63
2022/10/17 15:42:53;;;;;;;6.03;2.42;;;;;;;23.86;62.40;101006.88;5112380;28;20040;-61
2022/10/17 15:45:20;;;;;;;3.60;2.38;;;;;;;23.78;63.16;101013.53;5112459;28;20396;-63
2022/10/17 15:47:53;;;;;;;;;;;;;;;23.72;64.01;101012.59;5112932;28;20350;-62
2022/10/17 15:50:20;;;;;;;2.85;2.13;;;;;;;23.60;64.65;101003.63;5112124;28;19916;-64
2022/10/17 15:52:48;;;;;;;5.50;2.92;;;;;;;23.55;65.68;101009.81;5112648;28;20031;-63
2022/10/17 15:55:13;;;;;;;4.95;2.90;;;;;;;23.51;66.09;101015.94;5112293;28;20043;-64
2022/10/17 15:57:41;;;;;;;7.57;3.80;;;;;;;23.39;66.56;101007.81;5112305;28;20114;-64
2022/10/17 16:00:15;;;;;;;7.28;4.15;;;;;;;23.37;67.95;101018.13;5112086;28;20050;-65
2022/10/17 16:02:41;;;;;;;6.22;3.35;;;;;;;23.27;68.05;101012.44;5112231;28;20078;-65
2022/10/17 16:05:16;;;;;;;8.13;4.15;;;;;;;23.18;68.48;101016.59;5112303;28;20055;-65